createdAt,value
2023-02-19T00:01:14.637Z,89.82
2023-02-19T00:03:42.601Z,89.28
2023-02-19T00:06:11.375Z,89.45
2023-02-19T00:08:38.943Z,88.92
2023-02-19T00:11:12.851Z,88.45
2023-02-19T00:13:41.619Z,88.41
2023-02-19T00:16:09.723Z,88.46
2023-02-19T00:18:36.461Z,87.73
2023-02-19T00:21:04.030Z,88.57
2023-02-19T00:23:31.187Z,88.08
2023-02-19T00:26:17.145Z,88.17
2023-02-19T00:28:45.349Z,86.62
2023-02-19T00:31:21.489Z,87.38
2023-02-19T00:33:49.503Z,86.52
2023-02-19T00:36:16.571Z,87.29
2023-02-19T00:38:43.950Z,87.01
2023-02-19T00:41:21.362Z,86.83
2023-02-19T00:43:54.909Z,87.15
2023-02-19T00:46:30.330Z,86.84
2023-02-19T00:48:58.149Z,87.80
2023-02-19T00:51:27.205Z,89.11
2023-02-19T00:53:54.085Z,90.29
2023-02-19T00:56:21.069Z,90.71
2023-02-19T00:58:48.202Z,91.14
2023-02-19T01:01:15.472Z,91.60
2023-02-19T01:03:42.086Z,91.18
2023-02-19T01:06:10.967Z,92.71
2023-02-19T01:08:37.931Z,93.15
2023-02-19T01:11:06.212Z,94.58
2023-02-19T01:13:33.562Z,94.53
2023-02-19T01:16:15.151Z,94.37
2023-02-19T01:18:42.505Z,93.44
2023-02-19T01:21:13.289Z,93.13
2023-02-19T01:23:40.182Z,94.11
2023-02-19T01:26:09.486Z,93.48
2023-02-19T01:28:35.968Z,93.99
2023-02-19T01:31:08.670Z,92.20
2023-02-19T01:33:35.376Z,90.98
2023-02-19T01:36:06.183Z,91.20
2023-02-19T01:38:33.305Z,91.13
2023-02-19T01:41:05.034Z,92.05
2023-02-19T01:43:54.744Z,91.39
2023-02-19T01:46:21.382Z,90.99
2023-02-19T01:48:47.861Z,90.40
2023-02-19T01:51:19.980Z,90.58
2023-02-19T01:53:52.255Z,89.85
2023-02-19T01:56:21.043Z,89.88
2023-02-19T01:58:47.819Z,90.02
2023-02-19T02:01:14.524Z,90.80
2023-02-19T02:03:44.968Z,91.90
2023-02-19T02:06:15.612Z,92.54
2023-02-19T02:09:00.656Z,92.03
2023-02-19T02:11:27.762Z,92.29
2023-02-19T02:13:54.976Z,92.46
2023-02-19T02:16:39.726Z,92.34
2023-02-19T02:19:16.588Z,92.19
2023-02-19T02:22:05.628Z,93.05
2023-02-19T02:24:50.788Z,93.05
2023-02-19T02:27:29.340Z,93.47
2023-02-19T02:30:01.901Z,93.58
2023-02-19T02:32:37.538Z,95.26
2023-02-19T02:35:10.069Z,93.48
2023-02-19T02:37:41.419Z,93.65
2023-02-19T02:40:10.856Z,93.04
2023-02-19T02:42:39.983Z,92.00
2023-02-19T02:45:37.232Z,93.33
2023-02-19T02:48:27.098Z,92.32
2023-02-19T02:51:13.465Z,92.68
2023-02-19T02:53:58.590Z,92.60
2023-02-19T02:56:26.439Z,92.42
2023-02-19T02:58:55.350Z,92.51
2023-02-19T03:01:43.140Z,92.87
2023-02-19T03:04:30.299Z,92.09
2023-02-19T03:07:00.370Z,92.68
2023-02-19T03:09:40.585Z,91.89
2023-02-19T03:12:31.754Z,91.62
2023-02-19T03:15:21.359Z,91.92
2023-02-19T03:18:19.484Z,91.81
2023-02-19T03:20:51.615Z,91.94
2023-02-19T03:23:20.577Z,93.83
2023-02-19T03:26:06.167Z,94.87
2023-02-19T03:28:54.708Z,94.19
2023-02-19T03:31:25.004Z,93.26
2023-02-19T03:33:56.047Z,92.98
2023-02-19T03:36:26.402Z,91.90
2023-02-19T03:39:04.377Z,91.90
2023-02-19T03:41:42.592Z,92.18
2023-02-19T03:44:27.243Z,92.54
2023-02-19T03:47:03.363Z,91.84
2023-02-19T03:49:37.240Z,92.30
2023-02-19T03:52:21.678Z,91.93
2023-02-19T03:55:17.869Z,91.76
2023-02-19T03:57:51.594Z,91.70
2023-02-19T04:00:26.672Z,91.47
2023-02-19T04:03:02.124Z,91.79
2023-02-19T04:05:37.246Z,91.13
2023-02-19T04:08:14.634Z,92.16
2023-02-19T04:10:42.101Z,91.52
2023-02-19T04:13:22.466Z,90.74
2023-02-19T04:15:51.963Z,92.08
2023-02-19T04:18:22.857Z,92.71
2023-02-19T04:20:50.480Z,91.60
2023-02-19T04:23:22.960Z,90.96
2023-02-19T04:25:54.697Z,90.95
2023-02-19T04:28:21.740Z,91.57
2023-02-19T04:30:48.322Z,90.53
2023-02-19T04:33:14.922Z,91.83
2023-02-19T04:35:41.359Z,91.96
2023-02-19T04:38:08.248Z,92.01
2023-02-19T04:40:34.690Z,91.78
2023-02-19T04:43:01.128Z,90.78
2023-02-19T04:45:27.665Z,90.44
2023-02-19T04:47:54.127Z,90.55
2023-02-19T04:50:20.624Z,90.99
2023-02-19T04:52:47.065Z,90.17
2023-02-19T04:55:13.584Z,90.26
2023-02-19T04:57:39.985Z,90.25
2023-02-19T05:00:08.063Z,91.22
2023-02-19T05:02:34.674Z,91.39
2023-02-19T05:05:01.260Z,91.94
2023-02-19T05:07:27.677Z,92.04
2023-02-19T05:09:54.104Z,91.57
2023-02-19T05:12:20.944Z,90.78
2023-02-19T05:14:47.610Z,91.25
2023-02-19T05:17:14.080Z,91.41
2023-02-19T05:19:40.487Z,90.99
2023-02-19T05:22:06.860Z,91.88
2023-02-19T05:24:33.330Z,92.23
2023-02-19T05:26:59.830Z,91.01
2023-02-19T05:29:26.408Z,90.25
2023-02-19T05:31:52.967Z,90.52
2023-02-19T05:34:19.432Z,90.12
2023-02-19T05:36:45.948Z,87.45
2023-02-19T05:39:12.557Z,88.89
2023-02-19T05:41:39.384Z,89.01
2023-02-19T05:44:05.900Z,89.77
2023-02-19T05:46:32.595Z,88.25
2023-02-19T05:48:59.349Z,88.09
2023-02-19T05:51:27.308Z,88.17
2023-02-19T05:53:54.010Z,88.91
2023-02-19T05:56:33.989Z,89.15
2023-02-19T05:59:06.807Z,88.02
2023-02-19T06:01:35.242Z,89.06
2023-02-19T06:04:01.739Z,90.64
2023-02-19T06:06:28.588Z,90.80
2023-02-19T06:08:55.123Z,91.87
2023-02-19T06:11:21.630Z,91.45
2023-02-19T06:13:50.160Z,89.69
2023-02-19T06:16:17.768Z,89.54
2023-02-19T06:18:45.222Z,89.13
2023-02-19T06:21:12.715Z,90.01
2023-02-19T06:23:39.987Z,91.08
2023-02-19T06:26:13.681Z,91.82
2023-02-19T06:28:41.463Z,91.68
2023-02-19T06:31:09.871Z,92.15
2023-02-19T06:33:40.392Z,92.31
2023-02-19T06:36:12.568Z,91.57
2023-02-19T06:38:39.374Z,90.77
2023-02-19T06:41:07.032Z,91.02
2023-02-19T06:43:34.536Z,91.28
2023-02-19T06:46:02.757Z,91.31
2023-02-19T06:48:30.500Z,91.15
2023-02-19T06:50:56.999Z,92.26
2023-02-19T06:53:23.790Z,92.21
2023-02-19T06:56:05.552Z,92.10
2023-02-19T06:58:33.413Z,91.66
2023-02-19T07:01:00.354Z,92.04
2023-02-19T07:03:26.894Z,91.41
2023-02-19T07:05:54.437Z,90.38
2023-02-19T07:08:21.214Z,92.22
2023-02-19T07:10:55.705Z,91.02
2023-02-19T07:13:22.902Z,91.91
2023-02-19T07:15:51.941Z,91.30
2023-02-19T07:18:19.272Z,91.46
2023-02-19T07:20:45.719Z,90.96
2023-02-19T07:23:12.223Z,91.21
2023-02-19T07:25:39.266Z,92.22
2023-02-19T07:28:06.450Z,91.69
2023-02-19T07:30:32.950Z,91.43
2023-02-19T07:32:59.428Z,91.27
2023-02-19T07:35:26.051Z,91.14
2023-02-19T07:37:52.462Z,91.14
2023-02-19T07:40:18.943Z,90.37
2023-02-19T07:42:45.541Z,89.34
2023-02-19T07:45:11.953Z,90.19
2023-02-19T07:47:38.372Z,90.32
2023-02-19T07:50:05.108Z,90.70
2023-02-19T07:52:33.986Z,89.45
2023-02-19T07:55:00.412Z,89.45
2023-02-19T07:57:31.292Z,89.42
2023-02-19T07:59:58.840Z,89.93
2023-02-19T08:02:43.593Z,92.04
2023-02-19T08:05:10.570Z,90.78
2023-02-19T08:07:37.667Z,92.90
2023-02-19T08:10:23.748Z,93.09
2023-02-19T08:13:16.392Z,92.82
2023-02-19T08:15:43.110Z,92.80
2023-02-19T08:18:10.548Z,93.79
2023-02-19T08:20:37.313Z,95.26
2023-02-19T08:23:03.992Z,94.10
2023-02-19T08:25:30.633Z,92.51
2023-02-19T08:27:57.097Z,93.30
2023-02-19T08:30:24.332Z,92.30
2023-02-19T08:32:50.923Z,93.60
2023-02-19T08:35:17.708Z,93.87
2023-02-19T08:37:44.148Z,93.49
2023-02-19T08:40:11.696Z,92.56
2023-02-19T08:42:38.311Z,92.00
2023-02-19T08:45:05.628Z,91.71
2023-02-19T08:47:34.190Z,91.09
2023-02-19T08:50:00.608Z,90.91
2023-02-19T08:52:27.054Z,91.25
2023-02-19T08:54:53.657Z,90.77
2023-02-19T08:57:20.235Z,91.24
2023-02-19T08:59:46.652Z,91.14
2023-02-19T09:02:13.491Z,89.64
2023-02-19T09:04:40.375Z,89.57
2023-02-19T09:07:07.843Z,88.83
2023-02-19T09:09:37.216Z,87.42
2023-02-19T09:12:08.450Z,86.64
2023-02-19T09:14:35.764Z,85.73
2023-02-19T09:17:03.394Z,85.34
2023-02-19T09:19:29.851Z,84.02
2023-02-19T09:21:56.610Z,85.51
2023-02-19T09:24:23.685Z,85.28
2023-02-19T09:26:54.548Z,84.65
2023-02-19T09:29:22.412Z,85.11
2023-02-19T09:31:48.969Z,87.32
2023-02-19T09:34:15.609Z,85.51
2023-02-19T09:36:42.156Z,85.62
2023-02-19T09:39:10.377Z,85.64
2023-02-19T09:41:46.437Z,85.23
2023-02-19T09:44:18.260Z,85.40
2023-02-19T09:46:49.932Z,85.06
2023-02-19T09:49:21.218Z,86.02
2023-02-19T09:51:56.379Z,86.15
2023-02-19T09:54:26.550Z,85.35
2023-02-19T09:56:57.241Z,86.43
2023-02-19T09:59:27.269Z,86.88
2023-02-19T10:02:04.291Z,86.08
2023-02-19T10:04:30.745Z,84.29
2023-02-19T10:07:03.375Z,85.26
2023-02-19T10:09:30.933Z,84.49
2023-02-19T10:11:58.753Z,83.97
2023-02-19T10:14:36.692Z,84.48
2023-02-19T10:17:06.015Z,83.99
2023-02-19T10:19:34.587Z,84.67
2023-02-19T10:22:04.211Z,84.42
2023-02-19T10:24:33.025Z,84.03
2023-02-19T10:26:59.622Z,84.42
2023-02-19T10:29:27.264Z,84.90
2023-02-19T10:32:24.015Z,84.27
2023-02-19T10:35:09.385Z,82.49
2023-02-19T10:37:44.054Z,81.35
2023-02-19T10:40:19.701Z,81.00
2023-02-19T10:42:52.039Z,80.59
2023-02-19T10:45:24.463Z,79.92
2023-02-19T10:47:52.886Z,78.47
2023-02-19T10:50:30.112Z,74.90
2023-02-19T10:52:58.857Z,76.42
2023-02-19T10:55:36.780Z,77.74
2023-02-19T10:58:24.389Z,79.41
2023-02-19T11:01:12.244Z,80.45
2023-02-19T11:03:39.107Z,82.57
2023-02-19T11:06:11.314Z,82.77
2023-02-19T11:08:48.421Z,82.53
2023-02-19T11:11:32.249Z,82.37
2023-02-19T11:14:02.656Z,84.67
2023-02-19T11:16:42.074Z,84.68
2023-02-19T11:19:29.241Z,84.56
2023-02-19T11:21:56.721Z,84.22
2023-02-19T11:24:30.979Z,83.94
2023-02-19T11:27:02.997Z,82.27
2023-02-19T11:29:34.616Z,84.23
2023-02-19T11:32:26.125Z,84.14
2023-02-19T11:35:13.287Z,84.20
2023-02-19T11:38:03.031Z,83.74
2023-02-19T11:41:00.405Z,84.37
2023-02-19T11:43:47.597Z,85.32
2023-02-19T11:46:39.239Z,85.83
2023-02-19T11:49:37.417Z,84.60
2023-02-19T11:52:03.800Z,84.06
2023-02-19T11:54:49.286Z,85.41
2023-02-19T11:57:27.644Z,85.01
2023-02-19T11:59:57.037Z,82.75
2023-02-19T12:02:51.306Z,80.22
2023-02-19T12:05:33.824Z,74.65
2023-02-19T12:08:34.542Z,75.84
2023-02-19T12:11:32.099Z,77.24
2023-02-19T12:14:23.345Z,77.85
2023-02-19T12:17:01.803Z,78.93
2023-02-19T12:19:44.828Z,81.06
2023-02-19T12:22:31.302Z,80.71
2023-02-19T12:25:23.796Z,79.37
2023-02-19T12:28:04.939Z,79.42
2023-02-19T12:30:59.774Z,79.84
2023-02-19T12:34:16.176Z,80.02
2023-02-19T12:36:50.839Z,76.36
2023-02-19T12:39:29.238Z,77.85
2023-02-19T12:42:36.057Z,76.44
2023-02-19T12:45:17.732Z,71.64
2023-02-19T12:47:53.232Z,72.35
2023-02-19T12:50:25.336Z,71.65
2023-02-19T12:53:23.425Z,67.66
2023-02-19T12:55:54.897Z,65.16
2023-02-19T12:58:32.549Z,67.83
2023-02-19T13:00:59.979Z,67.84
2023-02-19T13:03:34.825Z,66.74
2023-02-19T13:06:45.434Z,67.74
2023-02-19T13:09:15.920Z,64.94
2023-02-19T13:11:56.252Z,63.13
2023-02-19T13:14:28.384Z,64.57
2023-02-19T13:17:02.793Z,65.56
2023-02-19T13:19:33.256Z,70.35
2023-02-19T13:23:08.472Z,71.91
2023-02-19T13:26:20.749Z,74.07
2023-02-19T13:29:17.960Z,76.28
2023-02-19T13:32:03.367Z,76.04
2023-02-19T13:34:48.770Z,75.29
2023-02-19T13:37:19.254Z,71.31
2023-02-19T13:39:52.916Z,69.10
2023-02-19T13:45:37.441Z,67.35
2023-02-19T13:48:28.294Z,70.58
2023-02-19T13:51:16.756Z,73.51
2023-02-19T13:53:47.920Z,72.19
2023-02-19T13:56:31.917Z,73.29
2023-02-19T13:59:01.368Z,74.41
2023-02-19T14:01:56.975Z,74.82
2023-02-19T14:04:40.151Z,76.36
2023-02-19T14:07:06.612Z,75.50
2023-02-19T14:09:36.076Z,73.18
2023-02-19T14:12:14.331Z,72.66
2023-02-19T14:14:49.364Z,71.65
2023-02-19T14:17:45.573Z,73.36
2023-02-19T14:20:14.750Z,73.58
2023-02-19T14:22:55.451Z,70.72
2023-02-19T14:25:31.016Z,69.04
2023-02-19T14:28:29.931Z,68.70
2023-02-19T14:31:34.080Z,68.57
2023-02-19T14:34:04.897Z,69.21
2023-02-19T14:36:48.553Z,70.56
2023-02-19T14:39:41.139Z,71.82
2023-02-19T14:42:22.702Z,73.02
2023-02-19T14:44:57.239Z,73.66
2023-02-19T14:47:29.412Z,73.56
2023-02-19T14:50:08.625Z,70.88
2023-02-19T14:52:57.550Z,71.04
2023-02-19T14:55:32.808Z,72.28
2023-02-19T14:58:06.137Z,73.54
2023-02-19T15:00:41.069Z,74.58
2023-02-19T15:03:25.762Z,73.62
2023-02-19T15:06:00.520Z,73.00
2023-02-19T15:08:52.968Z,73.93
2023-02-19T15:11:22.601Z,73.53
2023-02-19T15:14:16.931Z,73.38
2023-02-19T15:17:15.907Z,75.50
2023-02-19T15:19:48.854Z,74.89
2023-02-19T15:22:30.680Z,74.38
2023-02-19T15:25:03.317Z,74.13
2023-02-19T15:27:30.063Z,73.64
2023-02-19T15:29:59.907Z,75.67
2023-02-19T15:32:33.085Z,74.26
2023-02-19T15:35:26.526Z,75.74
2023-02-19T15:37:55.023Z,76.82
2023-02-19T15:40:30.555Z,75.45
2023-02-19T15:43:03.494Z,75.07
2023-02-19T15:45:41.639Z,76.03
2023-02-19T15:48:46.931Z,77.23
2023-02-19T15:51:57.916Z,77.70
2023-02-19T15:54:30.857Z,77.55
2023-02-19T15:57:07.065Z,77.71
2023-02-19T16:00:08.756Z,78.46
2023-02-19T16:02:36.053Z,79.32
2023-02-19T16:05:15.543Z,78.60
2023-02-19T16:07:45.035Z,78.73
2023-02-19T16:10:26.501Z,78.80
2023-02-19T16:13:08.194Z,78.15
2023-02-19T16:15:39.969Z,77.59
2023-02-19T16:18:33.403Z,78.73
2023-02-19T16:21:02.808Z,78.69
2023-02-19T16:23:32.767Z,78.44
2023-02-19T16:26:03.132Z,80.45
2023-02-19T16:28:50.164Z,79.59
2023-02-19T16:31:35.371Z,80.52
2023-02-19T16:34:20.745Z,80.33
2023-02-19T16:36:50.567Z,79.67
2023-02-19T16:39:18.975Z,79.15
2023-02-19T16:41:48.176Z,80.13
2023-02-19T16:44:20.628Z,80.03
2023-02-19T16:46:51.884Z,80.07
2023-02-19T16:49:18.901Z,79.48
2023-02-19T16:51:46.884Z,78.45
2023-02-19T16:54:13.674Z,78.73
2023-02-19T16:56:40.169Z,78.46
2023-02-19T16:59:07.609Z,78.08
2023-02-19T17:01:36.024Z,78.39
2023-02-19T17:04:09.482Z,79.62
2023-02-19T17:06:37.802Z,79.70
2023-02-19T17:09:06.454Z,78.22
2023-02-19T17:11:33.098Z,78.96
2023-02-19T17:13:59.578Z,77.36
2023-02-19T17:16:28.516Z,78.11
2023-02-19T17:18:55.594Z,78.50
2023-02-19T17:21:27.980Z,77.82
2023-02-19T17:23:54.572Z,78.88
2023-02-19T17:26:28.015Z,79.66
2023-02-19T17:29:02.378Z,80.94
2023-02-19T17:31:29.285Z,80.80
2023-02-19T17:33:56.189Z,80.56
2023-02-19T17:36:26.843Z,79.96
2023-02-19T17:38:54.185Z,80.11
2023-02-19T17:41:20.672Z,81.11
2023-02-19T17:43:47.587Z,81.74
2023-02-19T17:46:23.844Z,85.08
2023-02-19T17:48:50.807Z,85.27
2023-02-19T17:51:17.425Z,81.56
2023-02-19T17:53:46.610Z,81.58
2023-02-19T17:56:22.754Z,83.48
2023-02-19T17:58:49.254Z,83.41
2023-02-19T18:01:15.955Z,82.95
2023-02-19T18:03:42.736Z,82.33
2023-02-19T18:06:09.316Z,81.98
2023-02-19T18:08:35.910Z,81.74
2023-02-19T18:11:03.003Z,81.42
2023-02-19T18:13:29.821Z,82.13
2023-02-19T18:15:56.256Z,82.32
2023-02-19T18:18:25.545Z,82.11
2023-02-19T18:20:52.017Z,82.08
2023-02-19T18:23:20.546Z,81.79
2023-02-19T18:25:47.121Z,80.62
2023-02-19T18:28:14.904Z,81.03
2023-02-19T18:30:41.442Z,82.08
2023-02-19T18:33:10.989Z,81.47
2023-02-19T18:35:38.426Z,81.16
2023-02-19T18:38:05.526Z,82.00
2023-02-19T18:40:31.998Z,81.57
2023-02-19T18:42:58.787Z,82.22
2023-02-19T18:45:26.095Z,80.98
2023-02-19T18:47:52.632Z,80.79
2023-02-19T18:50:19.682Z,81.35
2023-02-19T18:52:46.369Z,82.04
2023-02-19T18:55:13.216Z,82.35
2023-02-19T18:57:39.780Z,82.21
2023-02-19T19:00:07.990Z,83.03
2023-02-19T19:02:48.234Z,83.48
2023-02-19T19:05:23.569Z,84.54
2023-02-19T19:07:51.829Z,84.40
2023-02-19T19:10:18.928Z,84.23
2023-02-19T19:12:45.645Z,84.13
2023-02-19T19:15:12.146Z,83.45
2023-02-19T19:17:40.559Z,84.86
2023-02-19T19:20:08.317Z,84.71
2023-02-19T19:22:34.693Z,85.21
2023-02-19T19:25:01.314Z,85.21
2023-02-19T19:27:27.709Z,84.38
2023-02-19T19:29:54.374Z,84.23
2023-02-19T19:32:20.902Z,83.95
2023-02-19T19:34:47.582Z,84.85
2023-02-19T19:37:14.042Z,83.83
2023-02-19T19:39:43.231Z,83.59
2023-02-19T19:42:11.845Z,83.58
2023-02-19T19:44:38.266Z,85.25
2023-02-19T19:47:04.841Z,85.18
2023-02-19T19:49:31.441Z,86.87
2023-02-19T19:52:01.009Z,86.56
2023-02-19T19:54:28.183Z,86.24
2023-02-19T19:56:54.695Z,87.52
2023-02-19T19:59:23.129Z,87.88
2023-02-19T20:02:01.783Z,87.59
2023-02-19T20:04:29.672Z,87.64
2023-02-19T20:06:58.600Z,86.35
2023-02-19T20:09:25.537Z,85.73
2023-02-19T20:11:53.763Z,84.87
2023-02-19T20:14:21.670Z,85.54
2023-02-19T20:16:48.438Z,85.42
2023-02-19T20:19:16.466Z,85.49
2023-02-19T20:21:47.283Z,85.02
2023-02-19T20:24:25.967Z,84.81
2023-02-19T20:27:02.455Z,84.11
2023-02-19T20:29:32.178Z,84.46
2023-02-19T20:32:00.213Z,83.64
2023-02-19T20:34:27.180Z,83.40
2023-02-19T20:36:54.117Z,83.73
2023-02-19T20:39:21.550Z,84.41
2023-02-19T20:41:51.889Z,84.12
2023-02-19T20:44:19.319Z,84.13
2023-02-19T20:46:48.096Z,84.46
2023-02-19T20:49:16.957Z,84.93
2023-02-19T20:51:44.566Z,84.24
2023-02-19T20:54:11.057Z,85.41
2023-02-19T20:56:37.536Z,84.08
2023-02-19T20:59:04.126Z,83.39
2023-02-19T21:01:30.556Z,83.78
2023-02-19T21:03:57.020Z,84.10
2023-02-19T21:06:24.659Z,83.54
2023-02-19T21:08:51.127Z,82.37
2023-02-19T21:11:17.781Z,82.37
2023-02-19T21:13:44.273Z,81.68
2023-02-19T21:16:11.147Z,82.05
2023-02-19T21:18:37.830Z,81.72
2023-02-19T21:21:04.351Z,80.92
2023-02-19T21:23:30.829Z,80.58
2023-02-19T21:25:57.351Z,80.25
2023-02-19T21:28:24.632Z,80.07
2023-02-19T21:30:51.160Z,79.80
2023-02-19T21:33:17.815Z,81.15
2023-02-19T21:35:45.208Z,80.67
2023-02-19T21:38:11.706Z,81.06
2023-02-19T21:40:38.253Z,81.11
2023-02-19T21:43:04.880Z,80.20
2023-02-19T21:45:31.393Z,80.76
2023-02-19T21:47:57.939Z,81.90
2023-02-19T21:50:24.479Z,81.88
2023-02-19T21:52:50.958Z,82.20
2023-02-19T21:55:17.403Z,81.46
2023-02-19T21:57:43.840Z,80.73
2023-02-19T22:00:10.831Z,81.12
2023-02-19T22:02:37.327Z,81.32
2023-02-19T22:05:03.988Z,80.93
2023-02-19T22:07:30.639Z,80.47
2023-02-19T22:09:57.050Z,79.20
2023-02-19T22:12:23.548Z,79.54
2023-02-19T22:14:50.003Z,79.43
2023-02-19T22:17:16.459Z,79.87
2023-02-19T22:19:42.916Z,80.20
2023-02-19T22:22:09.512Z,81.11
2023-02-19T22:24:35.984Z,80.84
2023-02-19T22:27:02.480Z,81.98
2023-02-19T22:29:28.983Z,81.37
2023-02-19T22:31:55.647Z,80.79
2023-02-19T22:34:22.319Z,80.23
2023-02-19T22:36:48.811Z,80.24
2023-02-19T22:39:26.628Z,81.06
2023-02-19T22:41:53.417Z,80.35
2023-02-19T22:44:19.958Z,80.53
2023-02-19T22:47:04.639Z,80.59
2023-02-19T22:49:31.248Z,80.79
2023-02-19T22:52:03.118Z,81.85
2023-02-19T22:54:29.570Z,81.81
2023-02-19T22:56:56.548Z,82.24
2023-02-19T22:59:23.225Z,81.68
2023-02-19T23:01:50.365Z,82.07
2023-02-19T23:04:17.117Z,81.92
2023-02-19T23:06:45.348Z,82.33
2023-02-19T23:09:18.329Z,83.19
2023-02-19T23:11:45.654Z,83.19
2023-02-19T23:14:13.500Z,83.08
2023-02-19T23:16:39.894Z,82.15
2023-02-19T23:19:09.466Z,81.33
2023-02-19T23:21:35.979Z,80.67
2023-02-19T23:24:02.387Z,80.90
2023-02-19T23:26:28.861Z,79.31
2023-02-19T23:28:55.805Z,79.52
2023-02-19T23:31:22.371Z,80.30
2023-02-19T23:33:49.190Z,80.48
2023-02-19T23:36:15.871Z,81.12
2023-02-19T23:38:46.809Z,81.32
2023-02-19T23:41:15.308Z,81.71
2023-02-19T23:43:42.023Z,82.97
2023-02-19T23:46:09.508Z,83.11
2023-02-19T23:48:36.020Z,83.16
2023-02-19T23:51:02.700Z,82.97
2023-02-19T23:53:29.232Z,83.74
2023-02-19T23:55:55.976Z,83.70
2023-02-19T23:58:22.459Z,83.46
